Time;durP1;ratioP1;P1;durP2;ratioP2;P2;SDS_P1;SDS_P2;PMS_P1;PMS_P2;Temp;Humidity;BMP_temperature;BMP_pressure;BME280_temperature;BME280_humidity;BME280_pressure;Samples;Min_cycle;Max_cycle;Signal;HPM_P1;HPM_P2
2023/07/09 00:00:18;;;;;;;22.17;14.48;;;23.90;99.90;;;;;;4992630;28;20545;-71
2023/07/09 00:02:44;;;;;;;22.60;14.23;;;23.80;99.90;;;;;;4994895;28;20472;-72
2023/07/09 00:05:16;;;;;;;25.88;16.27;;;23.80;99.90;;;;;;4994644;28;20045;-70
2023/07/09 00:07:43;;;;;;;25.23;15.73;;;23.80;99.90;;;;;;4994762;28;20030;-70
2023/07/09 00:10:19;;;;;;;22.00;13.95;;;23.70;99.90;;;;;;4994593;28;20062;-71
2023/07/09 00:12:46;;;;;;;22.10;13.27;;;23.70;99.90;;;;;;4994313;28;20035;-71
2023/07/09 00:15:15;;;;;;;22.40;13.23;;;23.70;99.90;;;;;;4994350;28;20038;-72
2023/07/09 00:17:41;;;;;;;27.13;16.88;;;23.60;99.90;;;;;;4994434;28;20038;-70
2023/07/09 00:20:14;;;;;;;25.45;17.42;;;23.60;99.90;;;;;;4994398;28;20364;-71
2023/07/09 00:22:41;;;;;;;31.15;17.70;;;23.60;99.90;;;;;;4994367;28;20022;-70
2023/07/09 00:25:16;;;;;;;23.20;15.48;;;23.50;99.90;;;;;;4993018;28;20441;-71
2023/07/09 00:27:44;;;;;;;23.35;14.18;;;23.50;99.90;;;;;;4994183;28;20042;-71
2023/07/09 00:30:21;;;;;;;24.85;16.48;;;23.50;99.90;;;;;;4994324;28;20031;-71
2023/07/09 00:32:48;;;;;;;23.48;14.38;;;23.50;99.90;;;;;;4992815;28;20376;-70
2023/07/09 00:35:16;;;;;;;24.52;15.98;;;23.50;99.90;;;;;;4993934;28;20030;-70
2023/07/09 00:37:43;;;;;;;22.15;13.90;;;23.50;99.90;;;;;;4993603;28;20193;-69
2023/07/09 00:40:18;;;;;;;23.38;15.27;;;23.50;99.90;;;;;;4993901;28;20054;-71
2023/07/09 00:42:49;;;;;;;23.80;15.77;;;23.40;99.90;;;;;;4994007;28;20053;-70
2023/07/09 00:45:24;;;;;;;25.42;15.35;;;23.40;99.90;;;;;;4993840;28;20431;-70
2023/07/09 00:47:57;;;;;;;22.88;15.55;;;23.50;99.90;;;;;;4993731;28;20087;-70
2023/07/09 00:51:01;;;;;;;24.40;15.48;;;23.50;99.90;;;;;;4993758;28;20030;-68
2023/07/09 00:53:31;;;;;;;24.83;15.40;;;23.50;99.90;;;;;;4971822;28;20031;-69
2023/07/09 00:56:03;;;;;;;21.92;15.65;;;23.40;99.90;;;;;;4971720;28;20026;-70
2023/07/09 00:58:29;;;;;;;24.52;16.35;;;23.40;99.90;;;;;;4983171;28;20046;-71
2023/07/09 01:01:01;;;;;;;23.23;15.40;;;23.40;99.90;;;;;;4993176;28;20335;-70
2023/07/09 01:03:44;;;;;;;23.20;15.93;;;23.40;99.90;;;;;;4993597;28;20026;-69
2023/07/09 01:06:12;;;;;;;23.02;15.50;;;23.40;99.90;;;;;;4993462;28;20126;-70
2023/07/09 01:08:42;;;;;;;24.35;15.82;;;23.40;99.90;;;;;;4993275;28;20077;-70
2023/07/09 01:11:20;;;;;;;22.92;15.85;;;23.40;99.90;;;;;;4993409;28;20097;-69
2023/07/09 01:13:47;;;;;;;23.60;15.90;;;23.40;99.90;;;;;;4993493;28;20554;-69
2023/07/09 01:16:13;;;;;;;23.00;15.93;;;23.40;99.90;;;;;;4993004;28;20394;-69
2023/07/09 01:18:39;;;;;;;23.65;15.98;;;23.40;99.90;;;;;;4993548;28;20093;-70
2023/07/09 01:21:15;;;;;;;22.58;15.77;;;23.40;99.90;;;;;;4992950;28;20041;-70
2023/07/09 01:23:43;;;;;;;25.13;17.08;;;23.30;99.90;;;;;;4992716;28;20034;-70
2023/07/09 01:26:11;;;;;;;25.25;16.23;;;23.30;99.90;;;;;;4993234;28;20817;-70
2023/07/09 01:28:37;;;;;;;25.63;16.55;;;23.30;99.90;;;;;;4992993;28;20046;-69
2023/07/09 01:31:04;;;;;;;24.00;16.52;;;23.30;99.90;;;;;;4992784;28;20034;-70
2023/07/09 01:33:30;;;;;;;22.13;15.68;;;23.30;99.90;;;;;;4993105;28;20018;-69
2023/07/09 01:36:00;;;;;;;27.55;16.75;;;23.20;99.90;;;;;;4993105;28;20057;-71
2023/07/09 01:38:31;;;;;;;23.63;15.32;;;23.30;99.90;;;;;;4992690;28;20352;-69
2023/07/09 01:40:57;;;;;;;21.42;15.13;;;23.20;99.90;;;;;;4992616;28;20479;-70
2023/07/09 01:43:24;;;;;;;24.73;15.48;;;23.30;99.90;;;;;;4992767;28;20039;-70
2023/07/09 01:45:51;;;;;;;24.52;15.77;;;23.20;99.90;;;;;;4992702;28;20034;-69
2023/07/09 01:48:17;;;;;;;23.50;16.17;;;23.20;99.90;;;;;;4992570;28;20037;-70
2023/07/09 01:50:44;;;;;;;23.08;15.82;;;23.20;99.90;;;;;;4992634;28;20038;-70
2023/07/09 01:53:12;;;;;;;22.02;15.88;;;23.20;99.90;;;;;;4992360;28;20037;-68
2023/07/09 01:55:37;;;;;;;23.60;16.50;;;23.20;99.90;;;;;;4992650;28;20061;-71
2023/07/09 01:58:06;;;;;;;21.75;16.85;;;23.20;99.90;;;;;;4992474;28;20457;-71
2023/07/09 02:00:34;;;;;;;25.27;16.42;;;23.10;99.90;;;;;;4992265;28;20030;-70
2023/07/09 02:03:02;;;;;;;23.45;16.40;;;23.10;99.90;;;;;;4992444;28;20065;-70
2023/07/09 02:05:30;;;;;;;25.40;16.67;;;23.10;99.90;;;;;;4992674;28;20034;-70
2023/07/09 02:07:55;;;;;;;24.83;17.45;;;23.10;99.90;;;;;;4992372;28;20494;-70
2023/07/09 02:10:21;;;;;;;22.73;16.17;;;23.10;99.90;;;;;;4992533;28;20026;-70
2023/07/09 02:12:48;;;;;;;22.58;17.33;;;23.10;99.90;;;;;;4992926;28;20081;-69
2023/07/09 02:15:15;;;;;;;27.73;18.30;;;23.00;99.90;;;;;;4992459;28;20022;-70
2023/07/09 02:17:40;;;;;;;28.60;18.02;;;23.00;99.90;;;;;;4992197;28;20062;-69
2023/07/09 02:20:08;;;;;;;25.20;16.42;;;23.00;99.90;;;;;;4992278;28;20430;-69
2023/07/09 02:22:34;;;;;;;24.75;18.15;;;23.00;99.90;;;;;;4992398;28;20084;-70
2023/07/09 02:25:00;;;;;;;27.95;18.83;;;23.00;99.90;;;;;;4992288;28;20487;-70
2023/07/09 02:27:26;;;;;;;24.27;16.80;;;23.00;99.90;;;;;;4992263;28;20026;-71
2023/07/09 02:29:51;;;;;;;24.70;18.00;;;22.90;99.90;;;;;;4992129;28;20486;-69
2023/07/09 02:32:20;;;;;;;26.65;17.20;;;22.90;99.90;;;;;;4992518;28;20026;-69
2023/07/09 02:34:48;;;;;;;24.55;16.42;;;22.90;99.90;;;;;;4992548;28;20463;-71
2023/07/09 02:37:16;;;;;;;24.58;17.05;;;22.90;99.90;;;;;;4991318;28;20490;-70
2023/07/09 02:39:41;;;;;;;24.23;16.55;;;22.80;99.90;;;;;;4992058;28;20333;-70
2023/07/09 02:42:10;;;;;;;24.60;16.90;;;22.80;99.90;;;;;;4992338;28;20029;-70
2023/07/09 02:44:37;;;;;;;24.92;17.17;;;22.70;99.90;;;;;;4992359;28;20053;-70
2023/07/09 02:47:02;;;;;;;21.45;16.27;;;22.70;99.90;;;;;;4991958;28;20037;-70
2023/07/09 02:49:28;;;;;;;23.90;17.02;;;22.70;99.90;;;;;;4994418;28;20034;-70
2023/07/09 02:51:53;;;;;;;29.83;23.00;;;22.70;99.90;;;;;;4995441;28;20031;-70
2023/07/09 02:54:19;;;;;;;30.70;22.80;;;22.70;99.90;;;;;;4994953;28;20113;-70
2023/07/09 02:56:44;;;;;;;31.63;23.83;;;22.70;99.90;;;;;;4995469;28;20066;-69
2023/07/09 02:59:11;;;;;;;29.40;22.65;;;22.70;99.90;;;;;;4995937;28;20064;-69
2023/07/09 03:01:36;;;;;;;31.95;24.02;;;22.70;99.90;;;;;;4995427;28;20062;-69
2023/07/09 03:04:03;;;;;;;30.73;24.00;;;22.70;99.90;;;;;;4995497;28;20062;-71
2023/07/09 03:06:32;;;;;;;32.25;24.13;;;22.60;99.90;;;;;;4995859;28;20030;-69
2023/07/09 03:08:59;;;;;;;33.30;24.02;;;22.70;99.90;;;;;;4995771;28;20451;-70
2023/07/09 03:11:25;;;;;;;29.65;23.27;;;22.60;99.90;;;;;;4995699;28;20038;-70
2023/07/09 03:13:50;;;;;;;29.73;23.83;;;22.60;99.90;;;;;;4995590;28;20408;-68
2023/07/09 03:16:18;;;;;;;31.90;24.10;;;22.60;99.90;;;;;;4995133;28;20482;-69
2023/07/09 03:18:44;;;;;;;30.70;22.75;;;22.50;99.90;;;;;;4995545;28;20101;-71
2023/07/09 03:21:09;;;;;;;30.88;21.35;;;22.50;99.90;;;;;;4995545;28;20129;-70
2023/07/09 03:23:35;;;;;;;27.73;20.40;;;22.50;99.90;;;;;;4995195;28;20037;-70
2023/07/09 03:26:01;;;;;;;24.15;19.27;;;22.40;99.90;;;;;;4995595;28;20042;-69
2023/07/09 03:28:26;;;;;;;25.92;18.50;;;22.40;99.90;;;;;;4995393;28;20034;-70
2023/07/09 03:30:55;;;;;;;23.30;18.13;;;22.40;99.90;;;;;;4995126;28;20026;-69
2023/07/09 03:33:20;;;;;;;24.83;18.00;;;22.30;99.90;;;;;;4995299;28;20065;-69
2023/07/09 03:35:46;;;;;;;24.48;18.73;;;22.30;99.90;;;;;;4995421;28;20034;-69
2023/07/09 03:38:12;;;;;;;28.60;20.38;;;22.20;99.90;;;;;;4994860;28;20034;-69
2023/07/09 03:40:38;;;;;;;28.48;20.90;;;22.20;99.90;;;;;;4995258;28;20037;-71
2023/07/09 03:43:04;;;;;;;31.40;20.13;;;22.20;99.90;;;;;;4994551;28;20034;-69
2023/07/09 03:45:31;;;;;;;26.02;18.88;;;22.20;99.90;;;;;;4995314;28;20459;-70
2023/07/09 03:47:57;;;;;;;27.85;20.63;;;22.20;99.90;;;;;;4994713;28;20039;-70
2023/07/09 03:50:22;;;;;;;27.75;20.45;;;22.20;99.90;;;;;;4994930;28;20097;-70
2023/07/09 03:52:48;;;;;;;27.25;21.25;;;22.20;99.90;;;;;;4994664;28;20074;-70
2023/07/09 03:55:14;;;;;;;33.03;23.27;;;22.10;99.90;;;;;;4994892;28;20437;-70
2023/07/09 03:57:40;;;;;;;32.75;23.90;;;22.10;99.90;;;;;;4993997;28;20100;-70
2023/07/09 04:00:10;;;;;;;28.90;23.95;;;22.10;99.90;;;;;;4993373;28;20023;-70
2023/07/09 04:02:39;;;;;;;31.50;24.02;;;22.10;99.90;;;;;;4994896;28;20113;-69
2023/07/09 04:05:05;;;;;;;29.27;22.10;;;22.10;99.90;;;;;;4995409;28;20045;-70
2023/07/09 04:07:31;;;;;;;28.52;21.33;;;22.20;99.90;;;;;;4995043;28;20052;-69
2023/07/09 04:09:57;;;;;;;32.03;22.23;;;22.20;99.90;;;;;;4995082;28;20455;-69
2023/07/09 04:12:22;;;;;;;27.88;20.25;;;22.20;99.90;;;;;;4994672;28;20034;-69
2023/07/09 04:14:48;;;;;;;26.55;20.17;;;22.20;99.90;;;;;;4995045;28;20088;-69
2023/07/09 04:17:13;;;;;;;27.63;19.23;;;22.30;99.90;;;;;;4994444;28;20026;-70
2023/07/09 04:19:39;;;;;;;28.80;20.15;;;22.30;99.90;;;;;;4994716;28;20077;-69
2023/07/09 04:22:04;;;;;;;30.23;20.13;;;22.40;99.90;;;;;;4994514;28;20113;-70
2023/07/09 04:24:31;;;;;;;26.33;19.20;;;22.40;99.90;;;;;;4994619;28;20082;-69
2023/07/09 04:26:58;;;;;;;31.88;20.27;;;22.50;99.90;;;;;;4994437;28;20037;-70
2023/07/09 04:29:23;;;;;;;29.67;19.73;;;22.50;99.90;;;;;;4994328;28;20047;-70
2023/07/09 04:31:49;;;;;;;29.80;20.67;;;22.60;99.90;;;;;;4994383;28;20405;-69
2023/07/09 04:34:15;;;;;;;26.00;19.73;;;22.70;99.90;;;;;;4994726;28;20451;-70
2023/07/09 04:36:40;;;;;;;29.75;20.13;;;22.70;99.90;;;;;;4994439;28;20360;-70
2023/07/09 04:39:06;;;;;;;29.08;20.00;;;22.80;99.90;;;;;;4994245;28;20026;-69
2023/07/09 04:41:33;;;;;;;27.65;20.17;;;22.90;99.90;;;;;;4993985;28;20030;-69
2023/07/09 04:43:58;;;;;;;26.08;18.73;;;22.90;99.90;;;;;;4994207;28;20061;-69
2023/07/09 04:46:24;;;;;;;27.23;19.80;;;22.90;99.90;;;;;;5009180;28;20064;-69
2023/07/09 04:48:49;;;;;;;26.63;18.23;;;23.00;99.90;;;;;;4994050;28;20034;-70
2023/07/09 04:51:15;;;;;;;24.80;18.52;;;23.00;99.90;;;;;;4993755;28;20031;-69
2023/07/09 04:53:42;;;;;;;26.95;18.83;;;23.10;99.90;;;;;;4993796;28;20030;-69
2023/07/09 04:56:07;;;;;;;25.58;18.70;;;23.20;99.90;;;;;;4993747;28;20041;-69
2023/07/09 04:58:34;;;;;;;25.63;18.77;;;23.30;99.90;;;;;;4993845;28;20035;-69
2023/07/09 05:00:59;;;;;;;27.33;17.67;;;23.30;99.90;;;;;;4993939;28;20019;-68
2023/07/09 05:03:26;;;;;;;25.80;18.15;;;23.40;99.90;;;;;;4993999;28;20035;-69
2023/07/09 05:05:52;;;;;;;24.35;17.27;;;23.50;99.90;;;;;;4994060;28;20034;-70
2023/07/09 05:08:18;;;;;;;25.65;17.23;;;23.60;99.90;;;;;;4993988;28;20038;-70
2023/07/09 05:10:45;;;;;;;26.48;18.08;;;23.70;99.90;;;;;;4993107;28;20417;-69
2023/07/09 05:13:11;;;;;;;24.92;17.50;;;23.80;99.90;;;;;;4991542;28;20479;-70
2023/07/09 05:15:40;;;;;;;27.00;18.17;;;23.90;99.90;;;;;;4992695;28;20030;-69
2023/07/09 05:18:07;;;;;;;25.10;18.23;;;24.00;99.90;;;;;;4992459;28;20394;-69
2023/07/09 05:20:33;;;;;;;25.23;19.00;;;24.20;99.90;;;;;;4993855;28;20041;-70
2023/07/09 05:22:59;;;;;;;23.42;16.48;;;24.40;99.90;;;;;;4993739;28;20031;-70
2023/07/09 05:25:24;;;;;;;22.35;15.77;;;24.60;99.90;;;;;;4992962;28;20152;-70
2023/07/09 05:27:51;;;;;;;22.55;15.60;;;24.70;99.90;;;;;;4993135;28;20042;-70
2023/07/09 05:30:17;;;;;;;24.92;16.48;;;25.00;99.90;;;;;;4993402;28;20030;-71
2023/07/09 05:32:43;;;;;;;22.95;15.45;;;25.20;99.90;;;;;;4993211;28;20474;-71
2023/07/09 05:35:09;;;;;;;23.45;15.30;;;25.40;99.90;;;;;;4993274;28;20065;-70
2023/07/09 05:37:36;;;;;;;21.42;14.95;;;25.70;99.90;;;;;;4993241;28;20521;-71
2023/07/09 05:40:05;;;;;;;23.98;17.20;;;26.00;99.90;;;;;;4992484;28;20027;-70
2023/07/09 05:42:31;;;;;;;25.35;17.70;;;26.20;99.90;;;;;;4991922;28;20101;-70
2023/07/09 05:44:57;;;;;;;24.88;17.00;;;26.40;99.90;;;;;;4992723;28;20080;-70
2023/07/09 05:47:23;;;;;;;27.13;16.58;;;26.60;99.90;;;;;;4993188;28;20046;-69
2023/07/09 05:49:50;;;;;;;23.42;16.63;;;26.70;99.90;;;;;;4992989;28;20030;-70
2023/07/09 05:52:17;;;;;;;25.95;17.30;;;26.90;99.90;;;;;;4992706;28;20042;-70
2023/07/09 05:54:43;;;;;;;22.42;16.45;;;27.10;99.90;;;;;;4992667;28;20105;-70
2023/07/09 05:57:09;;;;;;;24.92;16.23;;;27.30;99.90;;;;;;4993227;28;20036;-69
2023/07/09 05:59:35;;;;;;;24.42;16.98;;;27.60;99.90;;;;;;4991784;28;20109;-70
2023/07/09 06:02:00;;;;;;;23.05;15.68;;;27.80;99.90;;;;;;4993203;28;20030;-70
2023/07/09 06:04:26;;;;;;;25.13;16.58;;;28.00;99.80;;;;;;4994039;28;20460;-70
2023/07/09 06:06:52;;;;;;;24.60;15.48;;;28.20;99.10;;;;;;4993418;28;20076;-70
2023/07/09 06:09:18;;;;;;;23.52;15.45;;;28.40;98.60;;;;;;4993230;28;20041;-70
2023/07/09 06:11:43;;;;;;;23.20;15.07;;;28.60;98.00;;;;;;4987624;28;20390;-68
2023/07/09 06:14:09;;;;;;;21.65;13.68;;;28.80;97.30;;;;;;4986472;28;20022;-69
2023/07/09 06:16:35;;;;;;;20.60;12.32;;;29.10;96.50;;;;;;4984869;28;20109;-69
2023/07/09 06:19:01;;;;;;;21.20;13.60;;;29.40;96.10;;;;;;4987967;28;20069;-71
2023/07/09 06:21:27;;;;;;;21.33;12.50;;;29.70;95.40;;;;;;4990096;28;20027;-70
2023/07/09 06:23:52;;;;;;;22.80;12.38;;;30.00;94.70;;;;;;4990229;28;20058;-69
2023/07/09 06:26:19;;;;;;;19.65;12.68;;;30.20;94.10;;;;;;4993255;28;20035;-69
2023/07/09 06:28:45;;;;;;;18.88;11.65;;;30.50;93.80;;;;;;4992377;28;20034;-71
2023/07/09 06:31:10;;;;;;;18.65;11.45;;;30.90;93.40;;;;;;4994470;28;20065;-70
2023/07/09 06:33:36;;;;;;;17.40;8.70;;;31.40;92.70;;;;;;4997868;28;20022;-70
2023/07/09 06:36:03;;;;;;;15.63;8.10;;;31.70;92.10;;;;;;5010965;28;20033;-70
2023/07/09 06:38:29;;;;;;;14.98;7.68;;;31.90;91.10;;;;;;5004479;28;20026;-70
2023/07/09 06:40:55;;;;;;;12.77;7.00;;;32.10;90.60;;;;;;5004414;28;20168;-69
2023/07/09 06:43:21;;;;;;;13.57;6.32;;;32.40;89.70;;;;;;5011388;28;20432;-69
2023/07/09 06:45:50;;;;;;;11.00;6.50;;;32.50;88.50;;;;;;4999583;28;20031;-69
2023/07/09 06:48:16;;;;;;;11.98;5.82;;;32.50;87.50;;;;;;5009044;28;20034;-68
2023/07/09 06:50:42;;;;;;;12.95;6.43;;;32.40;87.90;;;;;;5006053;28;20485;-70
2023/07/09 06:53:07;;;;;;;13.20;6.55;;;32.40;87.90;;;;;;5002244;28;20031;-68
2023/07/09 06:55:33;;;;;;;15.10;6.40;;;32.30;87.90;;;;;;5012369;28;20113;-69
2023/07/09 06:57:59;;;;;;;14.52;6.75;;;32.20;87.90;;;;;;5000501;28;20037;-69
2023/07/09 07:00:25;;;;;;;17.23;6.38;;;32.30;87.90;;;;;;5008031;28;20030;-69
2023/07/09 07:02:50;;;;;;;12.75;5.78;;;32.30;87.70;;;;;;5006958;28;20022;-68
2023/07/09 07:05:17;;;;;;;12.90;6.13;;;32.30;87.70;;;;;;5000433;28;20035;-69
2023/07/09 07:07:44;;;;;;;11.60;6.35;;;32.20;88.20;;;;;;5005746;28;20125;-69
2023/07/09 07:10:10;;;;;;;10.18;5.57;;;32.20;88.40;;;;;;5009807;28;20101;-69
2023/07/09 07:12:44;;;;;;;9.23;5.50;;;32.30;88.50;;;;;;5003274;28;20034;-69
2023/07/09 07:15:10;;;;;;;10.85;5.93;;;32.40;88.60;;;;;;4994206;28;20467;-69
2023/07/09 07:17:36;;;;;;;10.85;5.75;;;32.90;88.10;;;;;;4995671;28;20030;-69
2023/07/09 07:20:02;;;;;;;11.60;5.50;;;33.50;87.20;;;;;;4995746;28;20030;-69
2023/07/09 07:22:28;;;;;;;9.90;5.28;;;34.00;86.40;;;;;;4995195;28;20033;-69
2023/07/09 07:24:53;;;;;;;13.43;7.28;;;34.30;86.20;;;;;;4995753;28;20186;-69
2023/07/09 07:27:19;;;;;;;13.40;6.68;;;34.50;85.50;;;;;;4995579;28;20027;-69
2023/07/09 07:29:45;;;;;;;12.05;6.90;;;34.70;85.00;;;;;;4995862;28;20394;-67
2023/07/09 07:32:11;;;;;;;12.63;6.57;;;34.70;85.00;;;;;;4995903;28;20030;-69
2023/07/09 07:34:36;;;;;;;12.50;6.80;;;34.60;84.70;;;;;;4994814;28;20039;-68
2023/07/09 07:37:02;;;;;;;14.25;6.60;;;34.60;85.00;;;;;;4995358;28;20027;-70
2023/07/09 07:39:27;;;;;;;9.75;5.80;;;34.80;84.80;;;;;;4995714;28;20109;-71
2023/07/09 07:41:55;;;;;;;13.48;6.20;;;34.90;84.10;;;;;;4995768;28;20382;-69
2023/07/09 07:44:20;;;;;;;10.88;5.55;;;35.00;84.20;;;;;;4995128;28;20073;-69
2023/07/09 07:46:46;;;;;;;11.23;6.63;;;35.20;84.00;;;;;;4995347;28;20034;-68
2023/07/09 07:49:11;;;;;;;10.57;6.63;;;35.50;83.20;;;;;;4995287;28;20042;-69
2023/07/09 07:51:38;;;;;;;10.40;5.72;;;35.70;82.60;;;;;;4995333;28;20026;-69
2023/07/09 07:54:04;;;;;;;8.27;5.00;;;35.50;81.70;;;;;;4995197;28;20069;-70
2023/07/09 07:56:29;;;;;;;11.60;4.63;;;34.90;82.30;;;;;;4994942;28;20066;-69
2023/07/09 07:58:55;;;;;;;7.85;4.43;;;34.30;83.40;;;;;;4991414;28;20077;-68
2023/07/09 08:01:20;;;;;;;9.93;4.55;;;33.80;84.30;;;;;;4994677;28;20027;-68
2023/07/09 08:03:46;;;;;;;7.13;4.05;;;33.60;85.30;;;;;;4994996;28;20030;-70
2023/07/09 08:06:12;;;;;;;9.95;4.18;;;33.70;85.30;;;;;;4995095;28;20093;-70
2023/07/09 08:08:38;;;;;;;8.60;3.95;;;33.70;85.30;;;;;;4995042;28;20045;-70
2023/07/09 08:11:07;;;;;;;9.20;4.10;;;33.70;85.20;;;;;;4994968;28;20478;-68
2023/07/09 08:13:37;;;;;;;9.40;4.60;;;33.70;84.80;;;;;;4994801;28;20367;-68
2023/07/09 08:16:04;;;;;;;9.00;3.85;;;33.70;85.40;;;;;;4994959;28;20422;-68
2023/07/09 08:18:29;;;;;;;8.15;3.55;;;33.80;85.30;;;;;;4994800;28;20026;-68
2023/07/09 08:20:55;;;;;;;5.43;2.70;;;33.80;84.50;;;;;;4994791;28;20058;-68
2023/07/09 08:23:21;;;;;;;6.78;3.15;;;33.70;84.30;;;;;;4994659;28;20030;-69
2023/07/09 08:25:56;;;;;;;4.70;2.80;;;33.70;84.60;;;;;;4994579;28;20046;-70
2023/07/09 08:28:21;;;;;;;8.93;3.08;;;34.00;84.00;;;;;;4994821;28;20038;-69
2023/07/09 08:30:47;;;;;;;4.55;2.50;;;34.20;83.30;;;;;;4994492;28;20536;-69
2023/07/09 08:33:13;;;;;;;4.85;2.30;;;34.60;82.70;;;;;;4994525;28;20018;-68
2023/07/09 08:35:41;;;;;;;6.78;2.50;;;35.20;81.80;;;;;;4994400;28;20022;-69
2023/07/09 08:38:07;;;;;;;4.63;2.10;;;35.90;80.90;;;;;;4993233;28;20033;-70
2023/07/09 08:40:32;;;;;;;6.03;2.10;;;36.50;78.80;;;;;;4994397;28;20030;-70
2023/07/09 08:43:11;;;;;;;3.42;2.38;;;37.00;78.10;;;;;;4994147;28;20042;-69
2023/07/09 08:45:49;;;;;;;4.35;2.55;;;37.40;77.70;;;;;;4994121;28;20514;-69
2023/07/09 08:48:33;;;;;;;5.05;2.67;;;37.80;76.70;;;;;;4993751;28;20469;-71
2023/07/09 08:51:28;;;;;;;3.30;2.30;;;38.30;76.50;;;;;;4994162;28;20053;-68
2023/07/09 08:53:58;;;;;;;4.93;2.45;;;39.30;74.90;;;;;;4989867;28;20030;-69
2023/07/09 08:56:33;;;;;;;5.77;2.73;;;40.10;73.30;;;;;;4994226;28;20030;-70
2023/07/09 08:59:01;;;;;;;3.90;2.35;;;40.20;72.40;;;;;;4994028;28;20109;-69
2023/07/09 09:01:36;;;;;;;4.18;2.55;;;40.20;72.20;;;;;;4994164;28;20036;-69
2023/07/09 09:04:13;;;;;;;5.10;2.35;;;40.30;72.20;;;;;;4993760;28;20485;-67
2023/07/09 09:06:44;;;;;;;6.38;2.08;;;40.60;71.80;;;;;;4993926;28;20030;-68
2023/07/09 09:09:12;;;;;;;;;;;41.30;71.40;;;;;;4994262;28;20042;-70
2023/07/09 09:11:46;;;;;;;3.03;2.38;;;41.90;70.90;;;;;;4993730;28;20000;-68
2023/07/09 09:14:31;;;;;;;4.15;2.42;;;42.20;70.10;;;;;;4994202;28;20091;-68
2023/07/09 09:16:57;;;;;;;3.92;2.42;;;42.60;69.30;;;;;;4993833;28;20467;-69
2023/07/09 09:19:25;;;;;;;4.07;2.38;;;42.30;69.20;;;;;;4993937;28;20033;-70
2023/07/09 09:21:58;;;;;;;3.67;2.50;;;42.20;68.80;;;;;;4993793;28;20023;-70
2023/07/09 09:24:37;;;;;;;4.60;2.70;;;42.00;68.60;;;;;;4993381;28;20051;-70
2023/07/09 09:27:03;;;;;;;7.72;2.53;;;41.70;68.90;;;;;;4993575;28;20378;-69
2023/07/09 09:29:29;;;;;;;8.90;2.67;;;41.80;67.60;;;;;;4993263;28;20052;-70
2023/07/09 09:31:58;;;;;;;4.95;2.47;;;41.50;68.10;;;;;;4993495;28;20033;-70
2023/07/09 09:34:29;;;;;;;4.93;2.88;;;41.40;68.40;;;;;;4992868;28;20514;-69
2023/07/09 09:36:56;;;;;;;4.60;2.63;;;41.60;68.10;;;;;;4993559;28;20110;-69
2023/07/09 09:39:24;;;;;;;5.88;2.80;;;42.00;67.70;;;;;;4993018;28;20463;-69
2023/07/09 09:41:56;;;;;;;5.45;2.60;;;42.40;67.50;;;;;;4993119;28;20482;-68
2023/07/09 09:44:28;;;;;;;4.93;2.45;;;42.70;67.00;;;;;;4993283;28;20084;-69
2023/07/09 09:46:57;;;;;;;4.85;2.30;;;42.90;66.20;;;;;;4993156;28;20026;-70
2023/07/09 09:49:23;;;;;;;4.60;2.60;;;42.90;65.80;;;;;;4993341;28;20038;-69
2023/07/09 09:51:49;;;;;;;5.50;2.35;;;42.90;65.80;;;;;;4993049;28;20023;-67
2023/07/09 09:54:20;;;;;;;5.88;2.85;;;43.00;65.50;;;;;;4992687;28;20037;-68
2023/07/09 09:56:50;;;;;;;4.80;2.47;;;43.20;65.40;;;;;;4993249;28;20773;-70
2023/07/09 09:59:21;;;;;;;5.10;2.50;;;43.40;64.70;;;;;;4992492;28;20157;-69
2023/07/09 10:01:56;;;;;;;9.02;2.50;;;43.60;64.30;;;;;;4993274;28;20118;-69
2023/07/09 10:04:22;;;;;;;4.55;2.10;;;43.60;63.90;;;;;;4992990;28;20035;-69
2023/07/09 10:06:53;;;;;;;10.43;2.63;;;43.80;63.40;;;;;;4993070;28;20164;-69
2023/07/09 10:09:37;;;;;;;5.55;2.55;;;43.90;63.40;;;;;;4993074;28;20042;-70
2023/07/09 10:12:20;;;;;;;6.43;2.28;;;44.20;62.90;;;;;;4993019;28;20045;-69
2023/07/09 10:14:56;;;;;;;5.28;2.35;;;44.20;62.40;;;;;;4993059;28;20038;-69
2023/07/09 10:17:37;;;;;;;6.22;2.65;;;44.20;62.20;;;;;;4993068;28;20037;-70
2023/07/09 10:20:16;;;;;;;3.75;2.80;;;44.20;62.30;;;;;;4993191;28;20471;-69
2023/07/09 10:23:02;;;;;;;8.27;3.45;;;44.20;62.50;;;;;;4992433;28;20076;-69
2023/07/09 10:25:44;;;;;;;6.60;3.70;;;43.90;62.50;;;;;;4992943;28;20105;-69
2023/07/09 10:28:31;;;;;;;5.47;2.50;;;43.10;63.00;;;;;;4992877;28;20030;-69
2023/07/09 10:31:00;;;;;;;3.50;2.42;;;42.80;63.20;;;;;;4992845;28;20038;-69
2023/07/09 10:33:52;;;;;;;5.07;2.05;;;42.60;63.50;;;;;;4992494;28;20035;-67
2023/07/09 10:36:27;;;;;;;4.70;2.13;;;42.80;63.20;;;;;;4992709;28;20080;-68
2023/07/09 10:39:28;;;;;;;5.13;2.15;;;43.00;63.30;;;;;;4992872;28;20041;-70
2023/07/09 10:41:59;;;;;;;5.80;2.28;;;42.70;63.50;;;;;;4991846;28;20070;-68
2023/07/09 10:44:42;;;;;;;5.75;2.30;;;42.20;64.30;;;;;;4992508;28;20457;-69
2023/07/09 10:47:17;;;;;;;5.10;2.33;;;42.00;64.40;;;;;;4992636;28;20452;-69
2023/07/09 10:49:43;;;;;;;4.32;2.25;;;41.20;65.40;;;;;;4992846;28;20053;-68
2023/07/09 10:52:41;;;;;;;5.88;2.28;;;40.20;66.40;;;;;;4992913;28;20022;-69
2023/07/09 10:55:24;;;;;;;5.18;2.30;;;39.70;67.90;;;;;;4991642;28;20042;-69
2023/07/09 10:57:59;;;;;;;5.68;2.47;;;39.20;67.70;;;;;;4992653;28;20161;-69
2023/07/09 11:00:37;;;;;;;6.30;2.47;;;38.50;68.50;;;;;;4992830;28;20037;-68
2023/07/09 11:03:33;;;;;;;6.15;2.10;;;38.20;69.40;;;;;;4992665;28;20035;-69
2023/07/09 11:05:59;;;;;;;3.85;1.88;;;38.10;69.70;;;;;;4992569;28;20023;-70
2023/07/09 11:08:35;;;;;;;6.60;2.42;;;38.40;69.60;;;;;;4992515;28;20034;-70
2023/07/09 11:11:07;;;;;;;7.22;2.90;;;38.90;68.80;;;;;;4995513;28;20030;-69
2023/07/09 11:13:37;;;;;;;6.88;2.47;;;39.60;68.60;;;;;;4996206;28;20034;-68
2023/07/09 11:16:06;;;;;;;4.07;1.90;;;40.50;67.50;;;;;;4995822;28;20026;-69
2023/07/09 11:18:33;;;;;;;5.10;2.42;;;41.40;66.60;;;;;;4996016;28;20026;-68
2023/07/09 11:21:16;;;;;;;5.28;2.30;;;41.80;66.30;;;;;;4996167;28;20379;-70
2023/07/09 11:23:51;;;;;;;4.50;2.40;;;42.30;66.00;;;;;;4994372;28;20378;-69
2023/07/09 11:26:34;;;;;;;7.40;3.10;;;42.50;65.50;;;;;;4995577;28;20031;-70
2023/07/09 11:29:05;;;;;;;5.20;2.80;;;42.60;65.30;;;;;;4995653;28;20133;-69
2023/07/09 11:31:36;;;;;;;5.88;2.85;;;42.50;65.50;;;;;;4995534;28;20113;-71
2023/07/09 11:34:26;;;;;;;6.25;2.53;;;42.30;65.50;;;;;;4995537;28;20033;-70
2023/07/09 11:36:55;;;;;;;5.78;2.85;;;41.60;65.90;;;;;;4995665;28;20378;-70
2023/07/09 11:39:51;;;;;;;5.30;2.60;;;41.00;66.30;;;;;;4995611;28;20027;-69
2023/07/09 11:42:25;;;;;;;5.70;2.63;;;40.70;67.00;;;;;;4995296;28;20081;-70
2023/07/09 11:44:56;;;;;;;7.72;3.10;;;40.60;67.20;;;;;;4995398;28;20030;-69
2023/07/09 11:47:37;;;;;;;4.72;2.60;;;40.90;67.10;;;;;;4995319;28;20030;-70
2023/07/09 11:50:25;;;;;;;7.25;2.60;;;41.40;66.70;;;;;;4995690;28;20045;-70
2023/07/09 11:53:28;;;;;;;3.78;2.00;;;41.80;66.20;;;;;;4994376;28;20042;-70
2023/07/09 11:55:53;;;;;;;6.00;2.08;;;42.00;65.50;;;;;;4995547;28;20426;-69
2023/07/09 11:58:19;;;;;;;3.13;2.28;;;42.70;64.90;;;;;;4994098;28;20034;-70
2023/07/09 12:00:48;;;;;;;3.10;1.80;;;43.40;63.70;;;;;;4995303;28;20081;-69
2023/07/09 12:03:35;;;;;;;4.88;1.92;;;44.20;63.00;;;;;;4994589;28;20464;-70
2023/07/09 12:06:26;;;;;;;4.13;1.58;;;44.70;61.60;;;;;;4995295;28;20022;-70
2023/07/09 12:08:52;;;;;;;3.78;2.00;;;44.20;61.90;;;;;;4995204;28;20034;-69
2023/07/09 12:11:19;;;;;;;4.63;2.10;;;43.20;62.50;;;;;;4995079;28;20085;-69
2023/07/09 12:13:44;;;;;;;6.43;2.22;;;42.00;63.10;;;;;;4994802;28;20125;-68
2023/07/09 12:16:35;;;;;;;4.65;2.20;;;40.60;64.50;;;;;;4993822;28;20438;-70
2023/07/09 12:19:01;;;;;;;5.32;2.10;;;39.20;66.70;;;;;;4975751;28;20031;-69
2023/07/09 12:21:27;;;;;;;3.22;2.10;;;38.50;67.10;;;;;;4991721;28;20030;-70
2023/07/09 12:23:55;;;;;;;7.22;2.60;;;37.80;68.00;;;;;;4994651;28;20050;-70
2023/07/09 12:26:20;;;;;;;7.15;2.53;;;37.00;69.40;;;;;;4995048;28;20037;-70
2023/07/09 12:29:09;;;;;;;10.35;3.78;;;36.10;71.00;;;;;;4994493;28;20038;-70
2023/07/09 12:31:34;;;;;;;12.68;4.30;;;35.40;72.70;;;;;;4994647;28;20490;-69
2023/07/09 12:34:00;;;;;;;10.80;4.63;;;34.60;74.80;;;;;;4993521;28;20065;-69
2023/07/09 12:36:27;;;;;;;11.57;4.55;;;33.80;76.50;;;;;;4994544;28;20038;-69
2023/07/09 12:39:02;;;;;;;9.82;4.70;;;33.20;78.20;;;;;;4994506;28;20026;-70
2023/07/09 12:41:44;;;;;;;12.85;4.85;;;32.70;79.80;;;;;;4994042;28;20041;-70
2023/07/09 12:44:20;;;;;;;9.00;3.50;;;32.30;79.90;;;;;;4994386;28;20073;-69
2023/07/09 12:46:48;;;;;;;14.75;4.05;;;32.10;80.80;;;;;;4994621;28;20109;-71